Time;durP1;ratioP1;P1;durP2;ratioP2;P2;SDS_P1;SDS_P2;PMS_P1;PMS_P2;Temp;Humidity;BMP_temperature;BMP_pressure;BME280_temperature;BME280_humidity;BME280_pressure;Samples;Min_cycle;Max_cycle;Signal;HPM_P1;HPM_P2
2024/01/13 00:02:18;;;;;;;1.55;1.45;;;;;;;;;;5093131;28;20173;-58
2024/01/13 00:04:44;;;;;;;2.95;2.38;;;;;;;;;;5093429;28;20036;-58
2024/01/13 00:07:09;;;;;;;3.55;2.30;;;;;;;;;;5092788;28;20044;-59
2024/01/13 00:09:35;;;;;;;1.67;1.58;;;;;;;;;;5092377;28;20081;-58
2024/01/13 00:12:02;;;;;;;2.08;1.75;;;;;;;;;;5092580;28;20036;-60
2024/01/13 00:14:27;;;;;;;2.70;2.50;;;;;;;;;;5093211;28;20038;-58
2024/01/13 00:16:53;;;;;;;2.08;1.73;;;;;;;;;;5092779;28;20115;-60
2024/01/13 00:19:18;;;;;;;2.78;2.22;;;;;;;;;;5091998;28;20501;-60
2024/01/13 00:21:44;;;;;;;3.33;2.53;;;;;;;;;;5092572;28;20486;-61
2024/01/13 00:24:10;;;;;;;1.50;1.40;;;;;;;;;;5092923;28;20040;-59
2024/01/13 00:26:35;;;;;;;2.15;1.98;;;;;;;;;;5092682;28;20036;-59
2024/01/13 00:29:01;;;;;;;1.70;1.60;;;;;;;;;;5092905;28;20032;-58
2024/01/13 00:31:26;;;;;;;3.60;1.90;;;;;;;;;;5092634;28;20040;-59
2024/01/13 00:33:52;;;;;;;1.08;1.08;;;;;;;;;;5092304;28;20042;-57
2024/01/13 00:36:17;;;;;;;4.07;1.85;;;;;;;;;;5092570;28;20047;-59
2024/01/13 00:38:43;;;;;;;5.45;3.00;;;;;;;;;;5090895;28;20044;-59
2024/01/13 00:41:08;;;;;;;2.83;2.58;;;;;;;;;;5092636;28;20111;-59
2024/01/13 00:43:35;;;;;;;8.63;2.35;;;;;;;;;;5090921;28;20032;-58
2024/01/13 00:46:00;;;;;;;3.85;2.28;;;;;;;;;;5092479;28;20097;-60
2024/01/13 00:48:26;;;;;;;2.38;1.70;;;;;;;;;;5092319;28;20489;-58
2024/01/13 00:50:51;;;;;;;1.85;1.75;;;;;;;;;;5092197;28;20501;-59
2024/01/13 00:53:17;;;;;;;4.88;2.85;;;;;;;;;;5091078;28;20646;-57
2024/01/13 00:55:43;;;;;;;3.92;2.15;;;;;;;;;;5092038;28;20138;-60
2024/01/13 00:58:08;;;;;;;2.67;2.22;;;;;;;;;;5092136;28;20061;-58
2024/01/13 01:00:34;;;;;;;2.42;1.95;;;;;;;;;;5091626;28;20032;-58
2024/01/13 01:02:59;;;;;;;2.38;2.03;;;;;;;;;;5071717;28;20053;-59
2024/01/13 01:05:25;;;;;;;2.22;1.98;;;;;;;;;;5071849;28;20044;-60
2024/01/13 01:07:50;;;;;;;2.40;2.20;;;;;;;;;;5070401;28;20036;-58
2024/01/13 01:10:16;;;;;;;4.80;2.42;;;;;;;;;;5077374;28;20454;-57
2024/01/13 01:12:43;;;;;;;1.65;1.20;;;;;;;;;;5091599;28;20040;-57
2024/01/13 01:15:09;;;;;;;2.20;1.95;;;;;;;;;;5092062;28;20035;-58
2024/01/13 01:17:34;;;;;;;3.80;3.22;;;;;;;;;;5090406;28;20122;-60
2024/01/13 01:20:00;;;;;;;2.40;2.13;;;;;;;;;;5091478;28;20055;-59
2024/01/13 01:22:26;;;;;;;1.90;1.63;;;;;;;;;;5091983;28;20443;-62
2024/01/13 01:24:51;;;;;;;3.13;1.73;;;;;;;;;;5092019;28;20040;-59
2024/01/13 01:27:17;;;;;;;8.70;2.30;;;;;;;;;;5090396;28;20093;-59
2024/01/13 01:29:42;;;;;;;4.35;2.40;;;;;;;;;;5090488;28;20036;-59
2024/01/13 01:32:08;;;;;;;2.47;2.25;;;;;;;;;;5090373;28;20085;-60
2024/01/13 01:34:34;;;;;;;2.38;1.35;;;;;;;;;;5091861;28;20101;-58
2024/01/13 01:36:59;;;;;;;2.95;2.60;;;;;;;;;;5091821;28;20032;-61
2024/01/13 01:39:25;;;;;;;2.35;1.50;;;;;;;;;;5091786;28;20531;-60
2024/01/13 01:41:51;;;;;;;1.55;1.42;;;;;;;;;;5090175;28;20122;-58
2024/01/13 01:44:16;;;;;;;3.17;2.30;;;;;;;;;;5091808;28;20135;-57
2024/01/13 01:46:43;;;;;;;6.13;1.80;;;;;;;;;;5091482;28;20085;-60
2024/01/13 01:49:10;;;;;;;9.30;3.45;;;;;;;;;;5091710;28;20040;-58
2024/01/13 01:51:36;;;;;;;1.65;1.50;;;;;;;;;;5091546;28;20051;-59
2024/01/13 01:54:02;;;;;;;2.28;2.08;;;;;;;;;;5091659;28;20032;-59
2024/01/13 01:56:28;;;;;;;4.38;2.70;;;;;;;;;;5090886;28;20040;-60
2024/01/13 01:58:55;;;;;;;4.65;2.80;;;;;;;;;;5091489;28;20044;-58
2024/01/13 02:01:24;;;;;;;2.15;1.80;;;;;;;;;;5091209;28;20063;-58
2024/01/13 02:03:51;;;;;;;5.07;3.65;;;;;;;;;;5091146;28;20563;-60
2024/01/13 02:06:17;;;;;;;2.13;1.98;;;;;;;;;;5091403;28;20044;-58
2024/01/13 02:08:43;;;;;;;4.35;2.38;;;;;;;;;;5090006;28;20039;-59
2024/01/13 02:11:12;;;;;;;6.97;2.03;;;;;;;;;;5090834;28;20114;-58
2024/01/13 02:13:38;;;;;;;8.45;3.20;;;;;;;;;;5089419;28;20069;-61
2024/01/13 02:16:06;;;;;;;1.35;1.35;;;;;;;;;;5091139;28;20040;-60
2024/01/13 02:18:32;;;;;;;4.05;2.55;;;;;;;;;;5091228;28;20116;-59
2024/01/13 02:20:57;;;;;;;2.50;2.30;;;;;;;;;;5091912;28;20074;-58
2024/01/13 02:23:23;;;;;;;4.38;2.10;;;;;;;;;;5094107;28;20377;-58
2024/01/13 02:25:48;;;;;;;5.18;3.55;;;;;;;;;;5094716;28;20051;-60
2024/01/13 02:28:15;;;;;;;7.15;2.47;;;;;;;;;;5095077;28;20485;-59
2024/01/13 02:30:41;;;;;;;8.52;3.13;;;;;;;;;;5094876;28;20042;-57
2024/01/13 02:33:06;;;;;;;1.80;1.73;;;;;;;;;;5093023;28;20028;-59
2024/01/13 02:35:32;;;;;;;1.08;1.05;;;;;;;;;;5095087;28;20146;-58
2024/01/13 02:37:58;;;;;;;10.73;3.05;;;;;;;;;;5094767;28;20036;-59
2024/01/13 02:40:24;;;;;;;7.32;2.88;;;;;;;;;;5094895;28;20405;-60
2024/01/13 02:42:49;;;;;;;4.75;2.35;;;;;;;;;;5093034;28;20039;-59
2024/01/13 02:45:15;;;;;;;2.83;2.60;;;;;;;;;;5092763;28;20047;-58
2024/01/13 02:47:43;;;;;;;1.83;1.48;;;;;;;;;;5093154;28;20056;-58
2024/01/13 02:50:09;;;;;;;3.20;2.53;;;;;;;;;;5094241;28;20036;-59
2024/01/13 02:52:35;;;;;;;6.78;2.60;;;;;;;;;;5094313;28;20024;-59
2024/01/13 02:55:00;;;;;;;4.18;2.83;;;;;;;;;;5094104;28;20032;-59
2024/01/13 02:57:26;;;;;;;2.08;1.92;;;;;;;;;;5094513;28;20047;-60
2024/01/13 02:59:51;;;;;;;2.78;1.65;;;;;;;;;;5093148;28;20052;-56
2024/01/13 03:02:17;;;;;;;2.55;2.13;;;;;;;;;;5079539;28;20147;-60
2024/01/13 03:04:43;;;;;;;4.43;3.00;;;;;;;;;;5087135;28;20032;-58
2024/01/13 03:07:08;;;;;;;4.90;2.05;;;;;;;;;;5093796;28;20123;-59
2024/01/13 03:09:34;;;;;;;8.40;2.83;;;;;;;;;;5094505;28;20432;-59
2024/01/13 03:12:00;;;;;;;2.90;2.55;;;;;;;;;;5093964;28;20123;-59
2024/01/13 03:14:26;;;;;;;2.40;2.22;;;;;;;;;;5092771;28;20414;-58
2024/01/13 03:16:52;;;;;;;3.00;2.50;;;;;;;;;;5091892;28;20028;-59
2024/01/13 03:19:18;;;;;;;2.42;2.25;;;;;;;;;;5094185;28;20051;-59
2024/01/13 03:21:44;;;;;;;5.18;3.42;;;;;;;;;;5092691;28;20559;-59
2024/01/13 03:24:09;;;;;;;2.53;2.03;;;;;;;;;;5092699;28;20050;-57
2024/01/13 03:26:35;;;;;;;5.47;3.03;;;;;;;;;;5093594;28;20420;-60
2024/01/13 03:29:01;;;;;;;2.45;2.25;;;;;;;;;;5093021;28;20036;-58
2024/01/13 03:31:26;;;;;;;10.13;2.35;;;;;;;;;;5093731;28;20039;-59
2024/01/13 03:33:52;;;;;;;3.85;2.47;;;;;;;;;;5093772;28;20036;-59
2024/01/13 03:36:18;;;;;;;2.53;2.35;;;;;;;;;;5092363;28;20558;-58
2024/01/13 03:38:43;;;;;;;6.00;3.17;;;;;;;;;;5093376;28;20550;-59
2024/01/13 03:41:09;;;;;;;1.50;1.48;;;;;;;;;;5071373;28;20035;-58
2024/01/13 03:43:35;;;;;;;4.07;2.60;;;;;;;;;;5073471;28;20040;-58
2024/01/13 03:46:00;;;;;;;5.10;3.75;;;;;;;;;;5073131;28;20510;-57
2024/01/13 03:48:26;;;;;;;1.58;1.58;;;;;;;;;;5084450;28;20028;-56
2024/01/13 03:50:52;;;;;;;3.92;2.63;;;;;;;;;;5093324;28;20032;-59
2024/01/13 03:53:17;;;;;;;4.22;2.88;;;;;;;;;;5092817;28;21405;-58
2024/01/13 03:55:44;;;;;;;5.05;2.83;;;;;;;;;;5093583;28;20089;-58
2024/01/13 03:58:09;;;;;;;8.05;2.83;;;;;;;;;;5093213;28;20044;-58
2024/01/13 04:00:35;;;;;;;9.00;4.45;;;;;;;;;;5092406;28;20134;-58
2024/01/13 04:03:01;;;;;;;17.55;4.68;;;;;;;;;;5131738;27;20114;-59
2024/01/13 04:05:27;;;;;;;2.95;1.88;;;;;;;;;;5119638;27;20067;-59
2024/01/13 04:07:52;;;;;;;4.07;2.72;;;;;;;;;;5092468;28;20405;-59
2024/01/13 04:10:18;;;;;;;2.72;2.33;;;;;;;;;;5092847;28;20412;-59
2024/01/13 04:12:45;;;;;;;2.05;1.45;;;;;;;;;;5092593;28;20074;-57
2024/01/13 04:15:11;;;;;;;3.20;2.75;;;;;;;;;;5092777;28;20497;-59
2024/01/13 04:17:37;;;;;;;8.25;3.95;;;;;;;;;;5092458;28;20245;-59
2024/01/13 04:20:03;;;;;;;9.38;4.65;;;;;;;;;;5092378;28;20051;-59
2024/01/13 04:22:29;;;;;;;14.82;4.15;;;;;;;;;;5092630;28;20048;-58
2024/01/13 04:24:55;;;;;;;5.32;2.67;;;;;;;;;;5091586;28;20386;-60
2024/01/13 04:27:21;;;;;;;4.22;2.55;;;;;;;;;;5092627;28;20036;-61
2024/01/13 04:29:46;;;;;;;5.20;2.53;;;;;;;;;;5092227;28;20040;-57
2024/01/13 04:32:12;;;;;;;3.05;2.63;;;;;;;;;;5092737;28;20040;-58
2024/01/13 04:34:37;;;;;;;6.75;3.88;;;;;;;;;;5091214;28;20028;-59
2024/01/13 04:37:03;;;;;;;4.88;3.63;;;;;;;;;;5092693;28;20036;-58
2024/01/13 04:39:29;;;;;;;6.53;4.43;;;;;;;;;;5092018;28;20040;-59
2024/01/13 04:41:55;;;;;;;4.82;3.25;;;;;;;;;;5091171;28;20039;-59
2024/01/13 04:44:20;;;;;;;7.10;3.80;;;;;;;;;;5092095;28;20044;-58
2024/01/13 04:46:46;;;;;;;5.95;3.78;;;;;;;;;;5092268;28;20043;-60
2024/01/13 04:49:11;;;;;;;3.85;2.33;;;;;;;;;;5091391;28;20072;-58
2024/01/13 04:51:37;;;;;;;4.47;2.95;;;;;;;;;;5091165;28;20044;-58
2024/01/13 04:54:03;;;;;;;7.55;3.65;;;;;;;;;;5092294;28;20040;-58
2024/01/13 04:56:29;;;;;;;4.85;2.95;;;;;;;;;;5092346;28;20119;-59
2024/01/13 04:58:55;;;;;;;3.17;2.88;;;;;;;;;;5090919;28;20048;-58
2024/01/13 05:01:20;;;;;;;3.83;3.25;;;;;;;;;;5091789;28;20074;-58
2024/01/13 05:03:46;;;;;;;13.45;5.68;;;;;;;;;;5090738;28;20081;-58
2024/01/13 05:06:12;;;;;;;14.70;4.90;;;;;;;;;;5090764;28;20056;-58
2024/01/13 05:08:38;;;;;;;10.82;5.43;;;;;;;;;;5091075;28;20483;-57
2024/01/13 05:11:04;;;;;;;8.80;5.25;;;;;;;;;;5092137;28;20040;-59
2024/01/13 05:13:29;;;;;;;6.88;3.85;;;;;;;;;;5091303;28;20037;-58
2024/01/13 05:15:55;;;;;;;4.38;3.17;;;;;;;;;;5091703;28;20072;-61
2024/01/13 05:18:20;;;;;;;7.65;3.42;;;;;;;;;;5091207;28;20044;-58
2024/01/13 05:20:46;;;;;;;5.93;3.45;;;;;;;;;;5091872;28;20054;-58
2024/01/13 05:23:12;;;;;;;3.55;3.03;;;;;;;;;;5090628;28;20118;-57
2024/01/13 05:25:39;;;;;;;3.10;2.90;;;;;;;;;;5091597;28;20116;-57
2024/01/13 05:28:05;;;;;;;15.98;3.15;;;;;;;;;;5091260;28;20127;-58
2024/01/13 05:30:32;;;;;;;8.45;3.78;;;;;;;;;;5091125;28;20157;-58
2024/01/13 05:33:03;;;;;;;7.03;3.03;;;;;;;;;;5091492;28;20032;-57
2024/01/13 05:35:29;;;;;;;3.72;3.22;;;;;;;;;;5091769;28;20115;-58
2024/01/13 05:37:55;;;;;;;3.58;3.05;;;;;;;;;;5089059;28;20169;-59
2024/01/13 05:40:20;;;;;;;15.38;3.72;;;;;;;;;;5091275;28;20032;-60
2024/01/13 05:42:46;;;;;;;5.32;3.25;;;;;;;;;;5091397;28;20536;-58
2024/01/13 05:45:12;;;;;;;3.63;2.72;;;;;;;;;;5091393;28;20043;-59
2024/01/13 05:47:37;;;;;;;10.25;2.22;;;;;;;;;;5091247;28;20032;-59
2024/01/13 05:50:03;;;;;;;3.15;2.90;;;;;;;;;;5090855;28;20075;-57
2024/01/13 05:52:30;;;;;;;2.00;1.85;;;;;;;;;;5090984;28;20493;-58
2024/01/13 05:54:56;;;;;;;9.10;3.38;;;;;;;;;;5091824;28;20561;-56
2024/01/13 05:57:22;;;;;;;5.18;3.13;;;;;;;;;;5092782;28;20421;-58
2024/01/13 05:59:48;;;;;;;7.13;3.63;;;;;;;;;;5094682;28;20039;-58
2024/01/13 06:02:13;;;;;;;2.80;2.28;;;;;;;;;;5095024;28;20044;-60
2024/01/13 06:04:39;;;;;;;5.40;2.92;;;;;;;;;;5095504;28;20565;-57
2024/01/13 06:07:05;;;;;;;3.60;3.08;;;;;;;;;;5094965;28;20040;-59
2024/01/13 06:09:32;;;;;;;5.72;2.78;;;;;;;;;;5094844;28;20040;-59
2024/01/13 06:11:57;;;;;;;2.97;1.95;;;;;;;;;;5095169;28;20081;-56
2024/01/13 06:14:23;;;;;;;3.58;2.72;;;;;;;;;;5093972;28;20043;-56
2024/01/13 06:16:49;;;;;;;11.82;3.60;;;;;;;;;;5060117;28;20028;-60
2024/01/13 06:19:14;;;;;;;7.10;3.20;;;;;;;;;;5093583;28;20075;-57
2024/01/13 06:21:42;;;;;;;11.82;3.38;;;;;;;;;;5093620;28;20118;-58
2024/01/13 06:24:08;;;;;;;3.92;3.53;;;;;;;;;;5095239;28;20423;-59
2024/01/13 06:26:40;;;;;;;3.92;3.17;;;;;;;;;;5095139;28;20444;-58
2024/01/13 06:29:11;;;;;;;4.97;3.65;;;;;;;;;;5073980;28;20028;-60
2024/01/13 06:31:37;;;;;;;3.90;2.63;;;;;;;;;;5093895;28;20043;-60
2024/01/13 06:34:02;;;;;;;2.78;2.58;;;;;;;;;;5094953;28;20081;-61
2024/01/13 06:36:41;;;;;;;8.80;4.70;;;;;;;;;;5094932;28;20035;-59
2024/01/13 06:39:12;;;;;;;8.25;4.55;;;;;;;;;;5058976;28;20052;-59
2024/01/13 06:41:37;;;;;;;4.95;3.42;;;;;;;;;;5094927;28;20036;-61
2024/01/13 06:44:04;;;;;;;7.68;3.90;;;;;;;;;;5094762;28;20481;-57
2024/01/13 06:46:30;;;;;;;7.93;4.40;;;;;;;;;;5093509;28;20088;-60
2024/01/13 06:48:55;;;;;;;10.00;4.28;;;;;;;;;;5094690;28;20488;-59
2024/01/13 06:51:21;;;;;;;11.43;5.82;;;;;;;;;;5094749;28;20035;-59
2024/01/13 06:53:47;;;;;;;7.40;3.45;;;;;;;;;;5076780;28;20040;-56
2024/01/13 06:56:12;;;;;;;10.35;4.45;;;;;;;;;;5056426;28;20043;-62
2024/01/13 06:58:38;;;;;;;4.93;3.42;;;;;;;;;;5084749;28;20048;-59
2024/01/13 07:01:04;;;;;;;5.88;3.67;;;;;;;;;;5093915;28;20051;-59
2024/01/13 07:03:30;;;;;;;5.47;3.97;;;;;;;;;;5093829;28;20032;-58
2024/01/13 07:05:56;;;;;;;5.82;3.25;;;;;;;;;;5093701;28;20532;-58
2024/01/13 07:08:21;;;;;;;6.70;4.72;;;;;;;;;;5093516;28;20028;-57
2024/01/13 07:10:50;;;;;;;3.40;3.13;;;;;;;;;;5093881;28;20113;-59
2024/01/13 07:13:17;;;;;;;5.07;3.08;;;;;;;;;;5093695;28;20040;-57
2024/01/13 07:15:43;;;;;;;6.72;4.55;;;;;;;;;;5093890;28;20090;-59
2024/01/13 07:18:08;;;;;;;16.13;4.15;;;;;;;;;;5093616;28;20032;-56
2024/01/13 07:20:34;;;;;;;7.30;4.93;;;;;;;;;;5093929;28;20032;-55
2024/01/13 07:23:00;;;;;;;12.98;5.72;;;;;;;;;;5093063;28;20117;-58
2024/01/13 07:25:25;;;;;;;8.02;4.60;;;;;;;;;;5092930;28;20032;-59
2024/01/13 07:27:51;;;;;;;6.18;3.58;;;;;;;;;;5083689;28;20265;-59
2024/01/13 07:30:16;;;;;;;9.63;5.40;;;;;;;;;;5088621;28;20242;-57
2024/01/13 07:32:42;;;;;;;15.82;4.68;;;;;;;;;;5091975;28;20496;-59
2024/01/13 07:35:08;;;;;;;7.00;3.83;;;;;;;;;;5093566;28;20051;-58
2024/01/13 07:37:34;;;;;;;5.18;4.40;;;;;;;;;;5093301;28;20082;-61
2024/01/13 07:39:59;;;;;;;15.32;6.95;;;;;;;;;;5092243;28;20083;-59
2024/01/13 07:42:25;;;;;;;18.67;6.85;;;;;;;;;;5090314;28;20036;-61
2024/01/13 07:44:50;;;;;;;9.63;3.42;;;;;;;;;;5091388;28;20032;-58
2024/01/13 07:47:16;;;;;;;8.18;4.88;;;;;;;;;;5089670;28;20139;-57
2024/01/13 07:49:42;;;;;;;6.95;4.93;;;;;;;;;;5074028;28;20024;-58
2024/01/13 07:52:08;;;;;;;9.43;5.55;;;;;;;;;;5092394;28;20039;-61
2024/01/13 07:54:34;;;;;;;7.93;5.70;;;;;;;;;;5091453;28;20672;-60
2024/01/13 07:57:00;;;;;;;13.30;4.32;;;;;;;;;;5092649;28;20039;-59
2024/01/13 07:59:25;;;;;;;7.32;4.80;;;;;;;;;;5073373;28;20132;-60
2024/01/13 08:01:51;;;;;;;6.68;4.47;;;;;;;;;;5092390;28;20131;-60
2024/01/13 08:04:17;;;;;;;10.60;4.82;;;;;;;;;;5092495;28;20085;-60
2024/01/13 08:06:42;;;;;;;10.38;5.60;;;;;;;;;;5090722;28;20067;-60
2024/01/13 08:09:08;;;;;;;16.05;6.30;;;;;;;;;;5092266;28;20560;-61
2024/01/13 08:11:34;;;;;;;7.97;5.50;;;;;;;;;;5091479;28;20028;-61
2024/01/13 08:14:00;;;;;;;9.98;6.03;;;;;;;;;;5091059;28;20039;-61
2024/01/13 08:16:26;;;;;;;22.65;6.78;;;;;;;;;;5092880;28;20040;-60
2024/01/13 08:18:52;;;;;;;13.48;5.80;;;;;;;;;;5091965;28;20077;-60
2024/01/13 08:21:18;;;;;;;13.10;5.50;;;;;;;;;;5092592;28;20059;-61
2024/01/13 08:23:43;;;;;;;5.78;4.72;;;;;;;;;;5092884;28;20530;-60
2024/01/13 08:26:09;;;;;;;12.07;5.80;;;;;;;;;;5092815;28;20036;-62
2024/01/13 08:28:35;;;;;;;7.68;4.85;;;;;;;;;;5091920;28;20135;-58
2024/01/13 08:31:01;;;;;;;18.88;7.18;;;;;;;;;;5091923;28;20040;-60
2024/01/13 08:33:27;;;;;;;13.65;6.70;;;;;;;;;;5091194;28;20512;-61
2024/01/13 08:35:52;;;;;;;11.50;4.97;;;;;;;;;;5091048;28;20043;-60
2024/01/13 08:38:18;;;;;;;10.57;4.65;;;;;;;;;;5090651;28;20142;-56
2024/01/13 08:40:46;;;;;;;11.20;5.88;;;;;;;;;;5091399;28;20032;-61
2024/01/13 08:43:13;;;;;;;14.70;5.75;;;;;;;;;;5092092;28;20432;-60
2024/01/13 08:45:38;;;;;;;13.95;5.82;;;;;;;;;;5092189;28;20036;-61
2024/01/13 08:48:04;;;;;;;12.00;7.45;;;;;;;;;;5092136;28;20036;-62
2024/01/13 08:50:31;;;;;;;25.10;8.60;;;;;;;;;;5091112;28;20102;-63
2024/01/13 08:52:58;;;;;;;11.43;6.72;;;;;;;;;;5088604;28;20040;-62
2024/01/13 08:55:24;;;;;;;19.00;6.05;;;;;;;;;;5084091;28;20397;-58
2024/01/13 08:57:50;;;;;;;10.65;5.68;;;;;;;;;;5088218;28;20038;-61
2024/01/13 09:00:17;;;;;;;9.73;6.15;;;;;;;;;;5088165;28;20048;-61
2024/01/13 09:02:43;;;;;;;13.80;7.43;;;;;;;;;;5069183;28;20036;-61
2024/01/13 09:05:09;;;;;;;13.73;7.13;;;;;;;;;;5070226;28;20094;-60
2024/01/13 09:07:35;;;;;;;14.05;6.38;;;;;;;;;;5069722;28;20119;-58
2024/01/13 09:10:01;;;;;;;24.73;8.95;;;;;;;;;;5069698;28;20115;-59
2024/01/13 09:12:30;;;;;;;19.60;8.65;;;;;;;;;;5070493;28;20490;-60
2024/01/13 09:14:56;;;;;;;16.48;8.27;;;;;;;;;;5090151;28;20160;-59
2024/01/13 09:17:22;;;;;;;22.80;10.27;;;;;;;;;;5091945;28;20494;-60
2024/01/13 09:19:48;;;;;;;30.20;11.30;;;;;;;;;;5090238;28;20098;-59
2024/01/13 09:22:13;;;;;;;26.08;10.13;;;;;;;;;;5091915;28;20412;-60
2024/01/13 09:24:41;;;;;;;18.35;9.85;;;;;;;;;;5091361;28;20046;-60
2024/01/13 09:27:06;;;;;;;25.50;12.32;;;;;;;;;;5091634;28;20583;-60
2024/01/13 09:29:32;;;;;;;16.75;10.77;;;;;;;;;;5090281;28;20068;-60
2024/01/13 09:31:57;;;;;;;32.15;11.77;;;;;;;;;;5090849;28;20122;-61
2024/01/13 09:34:24;;;;;;;20.15;10.48;;;;;;;;;;5091842;28;20042;-59
2024/01/13 09:36:50;;;;;;;18.92;10.10;;;;;;;;;;5090320;28;20577;-61
2024/01/13 09:39:16;;;;;;;32.83;12.05;;;;;;;;;;5091268;28;20113;-60
2024/01/13 09:41:45;;;;;;;22.38;9.95;;;;;;;;;;5091293;28;20036;-62
2024/01/13 09:44:21;;;;;;;11.30;5.75;;;;;;;;;;5090779;28;20059;-59
2024/01/13 09:46:49;;;;;;;18.33;9.88;;;;;;;;;;5091312;28;20097;-58
2024/01/13 09:49:16;;;;;;;24.10;9.10;;;;;;;;;;5091668;28;20439;-58
2024/01/13 09:51:43;;;;;;;22.80;10.82;;;;;;;;;;5090969;28;20090;-59
2024/01/13 09:54:11;;;;;;;18.63;9.75;;;;;;;;;;5090301;28;20063;-60
2024/01/13 09:56:42;;;;;;;21.02;10.10;;;;;;;;;;5073060;28;20059;-60
2024/01/13 09:59:07;;;;;;;18.33;9.52;;;;;;;;;;5090850;28;20040;-57
2024/01/13 10:01:33;;;;;;;30.67;11.13;;;;;;;;;;5082216;28;20055;-58
2024/01/13 10:03:59;;;;;;;25.77;11.00;;;;;;;;;;5071250;28;20029;-61
2024/01/13 10:06:25;;;;;;;23.55;10.00;;;;;;;;;;5073303;28;20087;-59
2024/01/13 10:08:50;;;;;;;22.00;9.32;;;;;;;;;;5085601;28;20069;-59
2024/01/13 10:11:16;;;;;;;21.80;9.57;;;;;;;;;;5084852;28;20123;-59
2024/01/13 10:13:42;;;;;;;22.17;10.20;;;;;;;;;;5084127;28;20066;-55
2024/01/13 10:16:07;;;;;;;16.88;9.02;;;;;;;;;;5089903;28;20036;-61
2024/01/13 10:18:33;;;;;;;20.30;9.82;;;;;;;;;;5091189;28;20044;-58
2024/01/13 10:20:59;;;;;;;23.35;9.98;;;;;;;;;;5090539;28;20036;-60
2024/01/13 10:23:25;;;;;;;18.13;8.80;;;;;;;;;;5089720;28;20085;-60
2024/01/13 10:25:50;;;;;;;20.98;9.90;;;;;;;;;;5091009;28;20032;-59
2024/01/13 10:28:16;;;;;;;17.70;9.02;;;;;;;;;;5090954;28;20040;-60
2024/01/13 10:30:42;;;;;;;13.45;8.50;;;;;;;;;;5091247;28;20043;-60
2024/01/13 10:33:11;;;;;;;15.73;8.68;;;;;;;;;;5091154;28;20089;-61
2024/01/13 10:35:37;;;;;;;25.15;9.52;;;;;;;;;;5091164;28;20036;-60
2024/01/13 10:38:03;;;;;;;19.52;8.75;;;;;;;;;;5090337;28;20036;-61
2024/01/13 10:40:29;;;;;;;17.10;9.10;;;;;;;;;;5089627;28;20509;-59
2024/01/13 10:42:57;;;;;;;13.52;7.65;;;;;;;;;;5091857;28;20039;-59
2024/01/13 10:45:24;;;;;;;20.42;8.35;;;;;;;;;;5094442;28;20079;-58
2024/01/13 10:47:53;;;;;;;13.13;7.50;;;;;;;;;;5094529;28;20046;-60
2024/01/13 10:50:19;;;;;;;18.65;7.57;;;;;;;;;;5092733;28;20032;-60
2024/01/13 10:52:57;;;;;;;14.18;7.43;;;;;;;;;;5094372;28;20039;-59
2024/01/13 10:55:23;;;;;;;16.15;7.35;;;;;;;;;;5092773;28;20440;-59
2024/01/13 10:57:49;;;;;;;13.13;6.63;;;;;;;;;;5094250;28;20036;-58
2024/01/13 11:00:16;;;;;;;21.60;7.75;;;;;;;;;;5094040;28;20048;-59
2024/01/13 11:02:42;;;;;;;12.95;7.35;;;;;;;;;;5094377;28;20443;-58
2024/01/13 11:05:08;;;;;;;14.90;7.32;;;;;;;;;;5092735;28;20043;-59
2024/01/13 11:07:34;;;;;;;17.10;7.57;;;;;;;;;;5093760;28;20173;-61
2024/01/13 11:10:02;;;;;;;13.85;6.70;;;;;;;;;;5094095;28;20032;-60
2024/01/13 11:12:33;;;;;;;18.45;7.28;;;;;;;;;;5092901;28;20047;-60
2024/01/13 11:15:14;;;;;;;15.43;6.82;;;;;;;;;;5092764;28;20062;-60
2024/01/13 11:17:40;;;;;;;11.02;5.85;;;;;;;;;;5085085;28;20126;-59
2024/01/13 11:20:08;;;;;;;19.17;8.57;;;;;;;;;;5095196;28;20593;-59
2024/01/13 11:22:38;;;;;;;17.85;9.07;;;;;;;;;;5075636;28;20039;-60
2024/01/13 11:25:07;;;;;;;18.55;7.00;;;;;;;;;;5093424;28;20028;-61
2024/01/13 11:27:33;;;;;;;16.92;7.15;;;;;;;;;;5092531;28;20036;-61
2024/01/13 11:29:59;;;;;;;14.43;7.03;;;;;;;;;;5094193;28;20047;-61
2024/01/13 11:32:26;;;;;;;10.15;6.35;;;;;;;;;;5093907;28;20034;-60
2024/01/13 11:34:52;;;;;;;18.35;7.28;;;;;;;;;;5092826;28;20032;-59
2024/01/13 11:37:18;;;;;;;17.48;6.95;;;;;;;;;;5092254;28;20131;-60
2024/01/13 11:39:45;;;;;;;12.25;6.50;;;;;;;;;;5092459;28;20127;-60
2024/01/13 11:42:11;;;;;;;10.52;6.10;;;;;;;;;;5092967;28;20081;-61
2024/01/13 11:44:42;;;;;;;13.80;6.53;;;;;;;;;;5093797;28;20035;-60
2024/01/13 11:47:08;;;;;;;18.40;8.43;;;;;;;;;;5093516;28;20040;-60
2024/01/13 11:49:38;;;;;;;16.95;7.95;;;;;;;;;;5092964;28;20474;-59
2024/01/13 11:52:05;;;;;;;14.40;7.75;;;;;;;;;;5092949;28;20040;-59
2024/01/13 11:54:31;;;;;;;12.60;6.60;;;;;;;;;;5092173;28;20036;-58
2024/01/13 11:56:58;;;;;;;15.10;5.93;;;;;;;;;;5091877;28;20036;-58
2024/01/13 11:59:23;;;;;;;15.63;6.35;;;;;;;;;;5092214;28;20047;-57
2024/01/13 12:01:49;;;;;;;12.68;6.57;;;;;;;;;;5092878;28;20119;-60
2024/01/13 12:04:15;;;;;;;16.75;7.78;;;;;;;;;;5093437;28;20036;-60
2024/01/13 12:06:45;;;;;;;13.95;6.18;;;;;;;;;;5088513;28;20059;-61
2024/01/13 12:09:11;;;;;;;13.35;6.65;;;;;;;;;;5092990;28;20048;-60
2024/01/13 12:11:37;;;;;;;14.27;6.40;;;;;;;;;;5093009;28;20173;-60
2024/01/13 12:14:03;;;;;;;17.80;7.40;;;;;;;;;;5093197;28;20040;-59
2024/01/13 12:16:29;;;;;;;12.93;6.82;;;;;;;;;;5092720;28;20051;-59
2024/01/13 12:18:54;;;;;;;12.85;7.40;;;;;;;;;;5092281;28;20054;-60
2024/01/13 12:21:20;;;;;;;11.70;6.20;;;;;;;;;;5091116;28;20032;-60
2024/01/13 12:23:46;;;;;;;14.55;7.70;;;;;;;;;;5090874;28;20075;-58
2024/01/13 12:26:12;;;;;;;11.40;5.88;;;;;;;;;;5054509;28;20043;-60
2024/01/13 12:28:41;;;;;;;18.13;7.60;;;;;;;;;;5089902;28;20058;-60
2024/01/13 12:31:07;;;;;;;18.45;8.63;;;;;;;;;;5092384;28;20127;-60
2024/01/13 12:33:32;;;;;;;17.23;7.57;;;;;;;;;;5092164;28;20583;-60
2024/01/13 12:35:59;;;;;;;13.50;7.03;;;;;;;;;;5090982;28;20122;-59
2024/01/13 12:38:28;;;;;;;15.02;6.55;;;;;;;;;;5092572;28;20070;-60
2024/01/13 12:40:57;;;;;;;13.38;6.97;;;;;;;;;;5092628;28;20071;-56
2024/01/13 12:43:23;;;;;;;10.87;7.00;;;;;;;;;;5092460;28;20390;-59
2024/01/13 12:45:49;;;;;;;20.83;6.85;;;;;;;;;;5091931;28;20296;-61
2024/01/13 12:48:16;;;;;;;27.08;10.65;;;;;;;;;;5092065;28;20581;-60
2024/01/13 12:50:42;;;;;;;14.10;7.03;;;;;;;;;;5074129;28;20036;-59
2024/01/13 12:53:08;;;;;;;14.00;6.45;;;;;;;;;;5092095;28;20398;-60
2024/01/13 12:55:33;;;;;;;15.85;7.22;;;;;;;;;;5090292;28;20042;-61
2024/01/13 12:57:59;;;;;;;12.27;6.20;;;;;;;;;;5090446;28;20086;-61
2024/01/13 13:00:28;;;;;;;10.63;5.50;;;;;;;;;;5092068;28;20047;-61
2024/01/13 13:02:57;;;;;;;10.30;5.60;;;;;;;;;;5091360;28;20498;-60
2024/01/13 13:05:23;;;;;;;13.00;5.60;;;;;;;;;;5091635;28;20040;-59
2024/01/13 13:07:49;;;;;;;12.30;5.35;;;;;;;;;;5092055;28;20062;-60
2024/01/13 13:10:15;;;;;;;12.82;6.22;;;;;;;;;;5091835;28;20043;-60
2024/01/13 13:12:41;;;;;;;17.20;7.28;;;;;;;;;;5091953;28;20061;-60
2024/01/13 13:15:07;;;;;;;15.07;5.75;;;;;;;;;;5091579;28;20044;-59
2024/01/13 13:17:33;;;;;;;15.13;5.82;;;;;;;;;;5091964;28;20081;-62
2024/01/13 13:19:58;;;;;;;13.13;5.40;;;;;;;;;;5091783;28;20558;-60
2024/01/13 13:22:24;;;;;;;13.30;6.57;;;;;;;;;;5087281;28;20456;-61
2024/01/13 13:24:50;;;;;;;10.55;5.30;;;;;;;;;;5090801;28;20032;-60
2024/01/13 13:27:16;;;;;;;11.38;5.30;;;;;;;;;;5091497;28;20040;-62
2024/01/13 13:29:41;;;;;;;12.60;5.90;;;;;;;;;;5091605;28;20063;-59
2024/01/13 13:32:08;;;;;;;21.48;6.93;;;;;;;;;;5089769;28;20051;-59
2024/01/13 13:34:34;;;;;;;12.55;5.32;;;;;;;;;;5091160;28;20032;-60
2024/01/13 13:37:00;;;;;;;14.35;6.60;;;;;;;;;;5091253;28;20070;-59
2024/01/13 13:39:26;;;;;;;11.70;6.15;;;;;;;;;;5090609;28;20040;-60
2024/01/13 13:41:52;;;;;;;16.00;7.57;;;;;;;;;;5069938;28;20032;-60
2024/01/13 13:44:17;;;;;;;14.60;7.07;;;;;;;;;;5085578;28;20546;-59
2024/01/13 13:46:43;;;;;;;19.48;7.20;;;;;;;;;;5091383;28;20082;-62
2024/01/13 13:49:08;;;;;;;11.02;5.57;;;;;;;;;;5091287;28;20036;-60
2024/01/13 13:51:34;;;;;;;14.07;6.22;;;;;;;;;;5091224;28;20024;-58
2024/01/13 13:53:59;;;;;;;15.02;6.40;;;;;;;;;;5090442;28;20039;-60
2024/01/13 13:56:25;;;;;;;17.77;6.95;;;;;;;;;;5072966;28;20105;-59
2024/01/13 13:58:51;;;;;;;15.32;6.75;;;;;;;;;;5089698;28;20043;-58
2024/01/13 14:01:17;;;;;;;16.73;6.38;;;;;;;;;;5082514;28;20506;-58
2024/01/13 14:03:43;;;;;;;13.82;5.53;;;;;;;;;;5069069;28;20082;-60
2024/01/13 14:06:09;;;;;;;13.00;6.78;;;;;;;;;;5070691;28;20139;-60
2024/01/13 14:08:34;;;;;;;15.43;7.30;;;;;;;;;;5070459;28;20093;-60
2024/01/13 14:11:00;;;;;;;14.18;6.35;;;;;;;;;;5070841;28;20506;-64
2024/01/13 14:13:26;;;;;;;15.23;7.95;;;;;;;;;;5070748;28;20067;-61
2024/01/13 14:15:51;;;;;;;22.83;6.80;;;;;;;;;;5070467;28;20036;-59
2024/01/13 14:18:18;;;;;;;17.88;7.28;;;;;;;;;;5081477;28;20489;-58
2024/01/13 14:20:43;;;;;;;15.75;7.30;;;;;;;;;;5094312;28;20051;-60
2024/01/13 14:23:09;;;;;;;17.95;7.30;;;;;;;;;;5092735;28;20111;-60
2024/01/13 14:25:35;;;;;;;21.17;7.32;;;;;;;;;;5094444;28;20050;-59
2024/01/13 14:28:01;;;;;;;16.10;5.47;;;;;;;;;;5094605;28;20491;-60
2024/01/13 14:30:28;;;;;;;12.93;6.35;;;;;;;;;;5093213;28;20553;-61